sensor_id;sensor_type;location;lat;lon;timestamp;temperature;humidity
83650;DHT22;73612;50.948;6.956;2024-01-15T00:00:33;1.90;97.80
83650;DHT22;73612;50.948;6.956;2024-01-15T00:03:00;1.80;98.00
83650;DHT22;73612;50.948;6.956;2024-01-15T00:05:27;1.80;98.40
83650;DHT22;73612;50.948;6.956;2024-01-15T00:07:53;1.70;98.70
83650;DHT22;73612;50.948;6.956;2024-01-15T00:10:20;1.70;98.90
83650;DHT22;73612;50.948;6.956;2024-01-15T00:12:48;1.60;99.20
83650;DHT22;73612;50.948;6.956;2024-01-15T00:15:15;1.60;99.50
83650;DHT22;73612;50.948;6.956;2024-01-15T00:17:41;1.60;99.60
83650;DHT22;73612;50.948;6.956;2024-01-15T00:20:09;1.70;99.80
83650;DHT22;73612;50.948;6.956;2024-01-15T00:22:35;1.70;99.70
83650;DHT22;73612;50.948;6.956;2024-01-15T00:25:02;1.70;99.50
83650;DHT22;73612;50.948;6.956;2024-01-15T00:27:29;1.70;99.60
83650;DHT22;73612;50.948;6.956;2024-01-15T00:29:56;1.70;99.60
83650;DHT22;73612;50.948;6.956;2024-01-15T00:32:23;1.60;99.80
83650;DHT22;73612;50.948;6.956;2024-01-15T00:34:50;1.50;99.90
83650;DHT22;73612;50.948;6.956;2024-01-15T00:37:16;1.50;99.90
83650;DHT22;73612;50.948;6.956;2024-01-15T00:39:43;1.50;99.90
83650;DHT22;73612;50.948;6.956;2024-01-15T00:42:10;1.50;99.90
83650;DHT22;73612;50.948;6.956;2024-01-15T00:44:37;1.40;99.90
83650;DHT22;73612;50.948;6.956;2024-01-15T00:47:04;1.40;99.90
83650;DHT22;73612;50.948;6.956;2024-01-15T00:49:31;1.40;99.90
83650;DHT22;73612;50.948;6.956;2024-01-15T00:51:57;1.30;99.90
83650;DHT22;73612;50.948;6.956;2024-01-15T00:54:24;1.30;99.90
83650;DHT22;73612;50.948;6.956;2024-01-15T00:56:51;1.30;99.90
83650;DHT22;73612;50.948;6.956;2024-01-15T00:59:17;1.30;99.90
83650;DHT22;73612;50.948;6.956;2024-01-15T01:01:44;1.40;99.90
83650;DHT22;73612;50.948;6.956;2024-01-15T01:04:10;1.40;99.90
83650;DHT22;73612;50.948;6.956;2024-01-15T01:06:37;1.40;99.90
83650;DHT22;73612;50.948;6.956;2024-01-15T01:09:04;1.40;99.90
83650;DHT22;73612;50.948;6.956;2024-01-15T01:11:30;1.50;99.90
83650;DHT22;73612;50.948;6.956;2024-01-15T01:13:57;1.50;99.90
83650;DHT22;73612;50.948;6.956;2024-01-15T01:16:23;1.50;99.90
83650;DHT22;73612;50.948;6.956;2024-01-15T01:18:50;1.50;99.90
83650;DHT22;73612;50.948;6.956;2024-01-15T01:21:17;1.50;99.90
83650;DHT22;73612;50.948;6.956;2024-01-15T01:23:43;1.50;99.90
83650;DHT22;73612;50.948;6.956;2024-01-15T01:26:10;1.50;99.90
83650;DHT22;73612;50.948;6.956;2024-01-15T01:28:36;1.50;99.90
83650;DHT22;73612;50.948;6.956;2024-01-15T01:31:03;1.50;99.90
83650;DHT22;73612;50.948;6.956;2024-01-15T01:33:30;1.50;99.90
83650;DHT22;73612;50.948;6.956;2024-01-15T01:35:56;1.50;99.90
83650;DHT22;73612;50.948;6.956;2024-01-15T01:38:23;1.50;99.90
83650;DHT22;73612;50.948;6.956;2024-01-15T01:40:49;1.50;99.90
83650;DHT22;73612;50.948;6.956;2024-01-15T01:43:16;1.60;99.90
83650;DHT22;73612;50.948;6.956;2024-01-15T01:45:43;1.60;99.90
83650;DHT22;73612;50.948;6.956;2024-01-15T01:48:09;1.60;99.90
83650;DHT22;73612;50.948;6.956;2024-01-15T01:50:36;1.60;99.90
83650;DHT22;73612;50.948;6.956;2024-01-15T01:53:02;1.60;99.90
83650;DHT22;73612;50.948;6.956;2024-01-15T01:55:29;1.70;99.90
83650;DHT22;73612;50.948;6.956;2024-01-15T01:57:56;1.70;99.90
83650;DHT22;73612;50.948;6.956;2024-01-15T02:00:22;1.70;99.90
83650;DHT22;73612;50.948;6.956;2024-01-15T02:02:49;1.70;99.90
83650;DHT22;73612;50.948;6.956;2024-01-15T02:05:18;1.70;99.90
83650;DHT22;73612;50.948;6.956;2024-01-15T02:07:42;1.70;99.90
83650;DHT22;73612;50.948;6.956;2024-01-15T02:10:09;1.70;99.90
83650;DHT22;73612;50.948;6.956;2024-01-15T02:12:35;1.80;99.90
83650;DHT22;73612;50.948;6.956;2024-01-15T02:15:02;1.80;99.90
83650;DHT22;73612;50.948;6.956;2024-01-15T02:17:29;1.80;99.90
83650;DHT22;73612;50.948;6.956;2024-01-15T02:19:55;1.80;99.90
83650;DHT22;73612;50.948;6.956;2024-01-15T02:22:22;1.90;99.90
83650;DHT22;73612;50.948;6.956;2024-01-15T02:24:48;1.90;99.90
83650;DHT22;73612;50.948;6.956;2024-01-15T02:27:15;1.90;99.90
83650;DHT22;73612;50.948;6.956;2024-01-15T02:29:42;1.80;99.90
83650;DHT22;73612;50.948;6.956;2024-01-15T02:32:08;1.80;99.90
83650;DHT22;73612;50.948;6.956;2024-01-15T02:34:35;1.80;99.90
83650;DHT22;73612;50.948;6.956;2024-01-15T02:37:01;1.80;99.90
83650;DHT22;73612;50.948;6.956;2024-01-15T02:39:28;1.90;99.90
83650;DHT22;73612;50.948;6.956;2024-01-15T02:41:55;1.90;99.90
83650;DHT22;73612;50.948;6.956;2024-01-15T02:44:21;1.90;99.90
83650;DHT22;73612;50.948;6.956;2024-01-15T02:46:48;1.90;99.90
83650;DHT22;73612;50.948;6.956;2024-01-15T02:49:14;1.90;99.90
83650;DHT22;73612;50.948;6.956;2024-01-15T02:51:41;1.90;99.90
83650;DHT22;73612;50.948;6.956;2024-01-15T02:54:07;1.90;99.90
83650;DHT22;73612;50.948;6.956;2024-01-15T02:56:34;1.90;99.90
83650;DHT22;73612;50.948;6.956;2024-01-15T02:59:01;1.90;99.90
83650;DHT22;73612;50.948;6.956;2024-01-15T03:01:27;1.90;99.90
83650;DHT22;73612;50.948;6.956;2024-01-15T03:03:54;1.90;99.90
83650;DHT22;73612;50.948;6.956;2024-01-15T03:06:20;1.90;99.90
83650;DHT22;73612;50.948;6.956;2024-01-15T03:08:47;1.90;99.90
83650;DHT22;73612;50.948;6.956;2024-01-15T03:11:14;1.90;99.90
83650;DHT22;73612;50.948;6.956;2024-01-15T03:13:40;1.90;99.90
83650;DHT22;73612;50.948;6.956;2024-01-15T03:16:07;1.90;99.90
83650;DHT22;73612;50.948;6.956;2024-01-15T03:18:33;1.90;99.90
83650;DHT22;73612;50.948;6.956;2024-01-15T03:21:00;1.90;99.90
83650;DHT22;73612;50.948;6.956;2024-01-15T03:23:27;1.90;99.90
83650;DHT22;73612;50.948;6.956;2024-01-15T03:25:53;1.90;99.90
83650;DHT22;73612;50.948;6.956;2024-01-15T03:28:20;1.90;99.90
83650;DHT22;73612;50.948;6.956;2024-01-15T03:30:46;1.90;99.90
83650;DHT22;73612;50.948;6.956;2024-01-15T03:33:13;1.90;99.90
83650;DHT22;73612;50.948;6.956;2024-01-15T03:35:40;1.90;99.90
83650;DHT22;73612;50.948;6.956;2024-01-15T03:38:07;1.90;99.90
83650;DHT22;73612;50.948;6.956;2024-01-15T03:40:33;1.90;99.90
83650;DHT22;73612;50.948;6.956;2024-01-15T03:42:59;1.90;99.90
83650;DHT22;73612;50.948;6.956;2024-01-15T03:45:26;2.00;99.90
83650;DHT22;73612;50.948;6.956;2024-01-15T03:47:53;2.00;99.90
83650;DHT22;73612;50.948;6.956;2024-01-15T03:50:19;2.00;99.90
83650;DHT22;73612;50.948;6.956;2024-01-15T03:52:46;2.00;99.90
83650;DHT22;73612;50.948;6.956;2024-01-15T03:55:12;2.00;99.90
83650;DHT22;73612;50.948;6.956;2024-01-15T03:57:39;2.00;99.90
83650;DHT22;73612;50.948;6.956;2024-01-15T04:00:06;2.00;99.90
83650;DHT22;73612;50.948;6.956;2024-01-15T04:02:33;2.00;99.90
83650;DHT22;73612;50.948;6.956;2024-01-15T04:04:59;2.00;99.90
83650;DHT22;73612;50.948;6.956;2024-01-15T04:07:26;2.00;99.90
83650;DHT22;73612;50.948;6.956;2024-01-15T04:09:53;2.00;99.90
83650;DHT22;73612;50.948;6.956;2024-01-15T04:12:19;2.10;99.90
83650;DHT22;73612;50.948;6.956;2024-01-15T04:14:46;2.00;99.90
83650;DHT22;73612;50.948;6.956;2024-01-15T04:17:12;2.10;99.90
83650;DHT22;73612;50.948;6.956;2024-01-15T04:19:39;2.10;99.90
83650;DHT22;73612;50.948;6.956;2024-01-15T04:22:06;2.10;99.90
83650;DHT22;73612;50.948;6.956;2024-01-15T04:24:32;2.10;99.90
83650;DHT22;73612;50.948;6.956;2024-01-15T04:26:59;2.10;99.90
83650;DHT22;73612;50.948;6.956;2024-01-15T04:29:25;2.10;99.90
83650;DHT22;73612;50.948;6.956;2024-01-15T04:31:52;2.10;99.90
83650;DHT22;73612;50.948;6.956;2024-01-15T04:34:19;2.10;99.90
83650;DHT22;73612;50.948;6.956;2024-01-15T04:36:45;2.10;99.90
83650;DHT22;73612;50.948;6.956;2024-01-15T04:39:12;2.10;99.90
83650;DHT22;73612;50.948;6.956;2024-01-15T04:41:39;2.10;99.90
83650;DHT22;73612;50.948;6.956;2024-01-15T04:44:05;2.10;99.90
83650;DHT22;73612;50.948;6.956;2024-01-15T04:46:32;2.10;99.80
83650;DHT22;73612;50.948;6.956;2024-01-15T04:48:59;2.10;99.90
83650;DHT22;73612;50.948;6.956;2024-01-15T04:51:25;2.10;99.90
83650;DHT22;73612;50.948;6.956;2024-01-15T04:53:52;2.10;99.80
83650;DHT22;73612;50.948;6.956;2024-01-15T04:56:18;2.20;99.70
83650;DHT22;73612;50.948;6.956;2024-01-15T04:58:45;2.20;99.70
83650;DHT22;73612;50.948;6.956;2024-01-15T05:01:12;2.20;99.60
83650;DHT22;73612;50.948;6.956;2024-01-15T05:03:38;2.20;99.60
83650;DHT22;73612;50.948;6.956;2024-01-15T05:06:05;2.20;99.60
83650;DHT22;73612;50.948;6.956;2024-01-15T05:08:32;2.20;99.50
83650;DHT22;73612;50.948;6.956;2024-01-15T05:10:58;2.30;99.70
83650;DHT22;73612;50.948;6.956;2024-01-15T05:13:25;2.30;99.60
83650;DHT22;73612;50.948;6.956;2024-01-15T05:15:52;2.30;99.50
83650;DHT22;73612;50.948;6.956;2024-01-15T05:18:18;2.30;99.40
83650;DHT22;73612;50.948;6.956;2024-01-15T05:20:45;2.30;99.50
83650;DHT22;73612;50.948;6.956;2024-01-15T05:23:11;2.30;99.60
83650;DHT22;73612;50.948;6.956;2024-01-15T05:25:38;2.30;99.50
83650;DHT22;73612;50.948;6.956;2024-01-15T05:28:05;2.30;99.60
83650;DHT22;73612;50.948;6.956;2024-01-15T05:30:31;2.30;99.70
83650;DHT22;73612;50.948;6.956;2024-01-15T05:32:58;2.30;99.60
83650;DHT22;73612;50.948;6.956;2024-01-15T05:35:25;2.40;99.60
83650;DHT22;73612;50.948;6.956;2024-01-15T05:37:51;2.40;99.60
83650;DHT22;73612;50.948;6.956;2024-01-15T05:40:18;2.40;99.60
83650;DHT22;73612;50.948;6.956;2024-01-15T05:42:44;2.50;99.70
83650;DHT22;73612;50.948;6.956;2024-01-15T05:45:11;2.50;99.70
83650;DHT22;73612;50.948;6.956;2024-01-15T05:47:38;2.60;99.80
83650;DHT22;73612;50.948;6.956;2024-01-15T05:50:05;2.60;99.50
83650;DHT22;73612;50.948;6.956;2024-01-15T05:52:31;2.40;99.10
83650;DHT22;73612;50.948;6.956;2024-01-15T05:54:58;2.30;99.20
83650;DHT22;73612;50.948;6.956;2024-01-15T05:57:24;2.30;99.50
83650;DHT22;73612;50.948;6.956;2024-01-15T05:59:51;2.30;99.90
83650;DHT22;73612;50.948;6.956;2024-01-15T06:02:18;2.20;99.80
83650;DHT22;73612;50.948;6.956;2024-01-15T06:04:44;2.30;99.90
83650;DHT22;73612;50.948;6.956;2024-01-15T06:07:11;2.30;99.90
83650;DHT22;73612;50.948;6.956;2024-01-15T06:09:37;2.30;99.80
83650;DHT22;73612;50.948;6.956;2024-01-15T06:12:05;2.30;99.70
83650;DHT22;73612;50.948;6.956;2024-01-15T06:14:31;2.40;99.70
83650;DHT22;73612;50.948;6.956;2024-01-15T06:16:58;2.40;99.60
83650;DHT22;73612;50.948;6.956;2024-01-15T06:19:25;2.40;99.70
83650;DHT22;73612;50.948;6.956;2024-01-15T06:21:51;2.40;99.70
83650;DHT22;73612;50.948;6.956;2024-01-15T06:24:18;2.40;99.80
83650;DHT22;73612;50.948;6.956;2024-01-15T06:26:45;2.40;99.90
83650;DHT22;73612;50.948;6.956;2024-01-15T06:29:11;2.40;99.90
83650;DHT22;73612;50.948;6.956;2024-01-15T06:31:37;2.40;99.80
83650;DHT22;73612;50.948;6.956;2024-01-15T06:34:04;2.50;99.90
83650;DHT22;73612;50.948;6.956;2024-01-15T06:36:31;2.50;99.90
83650;DHT22;73612;50.948;6.956;2024-01-15T06:38:57;2.50;99.90
83650;DHT22;73612;50.948;6.956;2024-01-15T06:41:24;2.50;99.90
83650;DHT22;73612;50.948;6.956;2024-01-15T06:43:50;2.50;99.70
83650;DHT22;73612;50.948;6.956;2024-01-15T06:46:21;2.50;99.80
83650;DHT22;73612;50.948;6.956;2024-01-15T06:48:57;2.40;99.90
83650;DHT22;73612;50.948;6.956;2024-01-15T06:51:24;2.40;99.70
83650;DHT22;73612;50.948;6.956;2024-01-15T06:53:50;2.40;99.80
83650;DHT22;73612;50.948;6.956;2024-01-15T06:56:17;2.40;99.80
83650;DHT22;73612;50.948;6.956;2024-01-15T06:58:44;2.40;99.90
83650;DHT22;73612;50.948;6.956;2024-01-15T07:01:10;2.40;99.90
83650;DHT22;73612;50.948;6.956;2024-01-15T07:03:37;2.40;99.90
83650;DHT22;73612;50.948;6.956;2024-01-15T07:06:04;2.40;99.90
83650;DHT22;73612;50.948;6.956;2024-01-15T07:08:30;2.40;99.90
83650;DHT22;73612;50.948;6.956;2024-01-15T07:10:57;2.40;99.90
83650;DHT22;73612;50.948;6.956;2024-01-15T07:13:23;2.40;99.90
83650;DHT22;73612;50.948;6.956;2024-01-15T07:15:50;2.40;99.90
83650;DHT22;73612;50.948;6.956;2024-01-15T07:18:17;2.40;99.90
83650;DHT22;73612;50.948;6.956;2024-01-15T07:20:43;2.40;99.90
83650;DHT22;73612;50.948;6.956;2024-01-15T07:23:10;2.40;99.90
83650;DHT22;73612;50.948;6.956;2024-01-15T07:25:36;2.40;99.90
83650;DHT22;73612;50.948;6.956;2024-01-15T07:28:03;2.40;99.90
83650;DHT22;73612;50.948;6.956;2024-01-15T07:30:30;2.40;99.90
83650;DHT22;73612;50.948;6.956;2024-01-15T07:32:56;2.40;99.90
83650;DHT22;73612;50.948;6.956;2024-01-15T07:35:23;2.50;99.90
83650;DHT22;73612;50.948;6.956;2024-01-15T07:37:50;2.50;99.90
83650;DHT22;73612;50.948;6.956;2024-01-15T07:40:16;2.50;99.90
83650;DHT22;73612;50.948;6.956;2024-01-15T07:42:43;2.50;99.90
83650;DHT22;73612;50.948;6.956;2024-01-15T07:45:10;2.50;99.80
83650;DHT22;73612;50.948;6.956;2024-01-15T07:47:36;2.50;99.80
83650;DHT22;73612;50.948;6.956;2024-01-15T07:50:03;2.50;99.90
83650;DHT22;73612;50.948;6.956;2024-01-15T07:52:30;2.60;99.90
83650;DHT22;73612;50.948;6.956;2024-01-15T07:54:56;2.60;99.90
83650;DHT22;73612;50.948;6.956;2024-01-15T07:57:23;2.60;99.80
83650;DHT22;73612;50.948;6.956;2024-01-15T07:59:49;2.60;99.80
83650;DHT22;73612;50.948;6.956;2024-01-15T08:02:16;2.70;99.40
83650;DHT22;73612;50.948;6.956;2024-01-15T08:04:42;2.70;99.20
83650;DHT22;73612;50.948;6.956;2024-01-15T08:07:09;2.70;99.00
83650;DHT22;73612;50.948;6.956;2024-01-15T08:09:35;2.70;99.10
83650;DHT22;73612;50.948;6.956;2024-01-15T08:12:02;2.70;99.20
83650;DHT22;73612;50.948;6.956;2024-01-15T08:14:29;2.80;99.10
83650;DHT22;73612;50.948;6.956;2024-01-15T08:16:55;2.80;98.70
83650;DHT22;73612;50.948;6.956;2024-01-15T08:19:22;2.80;98.20
83650;DHT22;73612;50.948;6.956;2024-01-15T08:21:49;2.80;98.40
83650;DHT22;73612;50.948;6.956;2024-01-15T08:24:15;2.80;98.00
83650;DHT22;73612;50.948;6.956;2024-01-15T08:26:42;2.90;97.90
83650;DHT22;73612;50.948;6.956;2024-01-15T08:29:08;2.80;97.80
83650;DHT22;73612;50.948;6.956;2024-01-15T08:31:35;2.80;98.00
83650;DHT22;73612;50.948;6.956;2024-01-15T08:34:02;2.80;98.00
83650;DHT22;73612;50.948;6.956;2024-01-15T08:36:28;2.80;98.00
83650;DHT22;73612;50.948;6.956;2024-01-15T08:38:56;2.80;97.90
83650;DHT22;73612;50.948;6.956;2024-01-15T08:41:22;2.80;98.10
83650;DHT22;73612;50.948;6.956;2024-01-15T08:43:49;2.80;98.30
83650;DHT22;73612;50.948;6.956;2024-01-15T08:46:15;2.80;98.10
83650;DHT22;73612;50.948;6.956;2024-01-15T08:48:42;2.90;98.10
83650;DHT22;73612;50.948;6.956;2024-01-15T08:51:09;2.80;98.10
83650;DHT22;73612;50.948;6.956;2024-01-15T08:53:35;2.80;98.30
83650;DHT22;73612;50.948;6.956;2024-01-15T08:56:02;2.80;98.30
83650;DHT22;73612;50.948;6.956;2024-01-15T08:58:28;2.80;98.30
83650;DHT22;73612;50.948;6.956;2024-01-15T09:00:55;2.80;98.40
83650;DHT22;73612;50.948;6.956;2024-01-15T09:03:22;2.80;98.50
83650;DHT22;73612;50.948;6.956;2024-01-15T09:05:48;2.70;98.40
83650;DHT22;73612;50.948;6.956;2024-01-15T09:08:15;2.70;98.50
83650;DHT22;73612;50.948;6.956;2024-01-15T09:10:41;2.70;98.60
83650;DHT22;73612;50.948;6.956;2024-01-15T09:13:08;2.70;98.90
83650;DHT22;73612;50.948;6.956;2024-01-15T09:15:35;2.70;98.70
83650;DHT22;73612;50.948;6.956;2024-01-15T09:18:01;2.70;98.70
83650;DHT22;73612;50.948;6.956;2024-01-15T09:20:28;2.70;98.90
83650;DHT22;73612;50.948;6.956;2024-01-15T09:22:54;2.70;98.90
83650;DHT22;73612;50.948;6.956;2024-01-15T09:25:21;2.60;98.80
83650;DHT22;73612;50.948;6.956;2024-01-15T09:27:48;2.60;99.00
83650;DHT22;73612;50.948;6.956;2024-01-15T09:30:14;2.50;99.20
83650;DHT22;73612;50.948;6.956;2024-01-15T09:32:41;2.50;99.40
83650;DHT22;73612;50.948;6.956;2024-01-15T09:35:08;2.50;99.60
83650;DHT22;73612;50.948;6.956;2024-01-15T09:37:34;2.50;99.70
83650;DHT22;73612;50.948;6.956;2024-01-15T09:40:01;2.40;99.70
83650;DHT22;73612;50.948;6.956;2024-01-15T09:42:28;2.30;99.90
83650;DHT22;73612;50.948;6.956;2024-01-15T09:44:54;2.30;99.90
83650;DHT22;73612;50.948;6.956;2024-01-15T09:47:21;2.30;99.90
83650;DHT22;73612;50.948;6.956;2024-01-15T09:49:47;2.20;99.90
83650;DHT22;73612;50.948;6.956;2024-01-15T09:52:14;2.20;99.90
83650;DHT22;73612;50.948;6.956;2024-01-15T09:54:43;2.20;99.90
83650;DHT22;73612;50.948;6.956;2024-01-15T09:57:07;2.20;99.90
83650;DHT22;73612;50.948;6.956;2024-01-15T09:59:34;2.20;99.90
83650;DHT22;73612;50.948;6.956;2024-01-15T10:02:00;2.10;99.90
83650;DHT22;73612;50.948;6.956;2024-01-15T10:04:27;2.10;99.90
83650;DHT22;73612;50.948;6.956;2024-01-15T10:06:54;2.00;99.90
83650;DHT22;73612;50.948;6.956;2024-01-15T10:09:20;2.00;99.90
83650;DHT22;73612;50.948;6.956;2024-01-15T10:11:47;2.10;99.90
83650;DHT22;73612;50.948;6.956;2024-01-15T10:14:13;2.10;99.90
83650;DHT22;73612;50.948;6.956;2024-01-15T10:16:41;2.10;99.90
83650;DHT22;73612;50.948;6.956;2024-01-15T10:19:08;2.10;99.90
83650;DHT22;73612;50.948;6.956;2024-01-15T10:21:34;2.20;99.90
83650;DHT22;73612;50.948;6.956;2024-01-15T10:24:02;2.20;99.90
83650;DHT22;73612;50.948;6.956;2024-01-15T10:26:29;2.30;99.90
83650;DHT22;73612;50.948;6.956;2024-01-15T10:28:55;2.50;99.90
83650;DHT22;73612;50.948;6.956;2024-01-15T10:31:22;2.60;99.90
83650;DHT22;73612;50.948;6.956;2024-01-15T10:33:48;2.40;99.90
83650;DHT22;73612;50.948;6.956;2024-01-15T10:36:15;2.30;99.90
83650;DHT22;73612;50.948;6.956;2024-01-15T10:38:42;2.30;99.90
83650;DHT22;73612;50.948;6.956;2024-01-15T10:41:08;2.30;99.90
83650;DHT22;73612;50.948;6.956;2024-01-15T10:43:35;2.30;99.90
83650;DHT22;73612;50.948;6.956;2024-01-15T10:46:02;2.20;99.90
83650;DHT22;73612;50.948;6.956;2024-01-15T10:48:28;2.30;99.90
83650;DHT22;73612;50.948;6.956;2024-01-15T10:50:55;2.20;99.90
83650;DHT22;73612;50.948;6.956;2024-01-15T10:53:21;2.20;99.90
83650;DHT22;73612;50.948;6.956;2024-01-15T10:55:48;2.00;99.90
83650;DHT22;73612;50.948;6.956;2024-01-15T10:58:15;1.90;99.90
83650;DHT22;73612;50.948;6.956;2024-01-15T11:00:41;1.80;99.90
83650;DHT22;73612;50.948;6.956;2024-01-15T11:03:08;1.70;99.90
83650;DHT22;73612;50.948;6.956;2024-01-15T11:05:37;1.70;99.90
83650;DHT22;73612;50.948;6.956;2024-01-15T11:08:04;1.80;99.90
83650;DHT22;73612;50.948;6.956;2024-01-15T11:10:45;1.80;99.90
83650;DHT22;73612;50.948;6.956;2024-01-15T11:13:19;1.90;99.90
83650;DHT22;73612;50.948;6.956;2024-01-15T11:15:57;2.00;99.90
83650;DHT22;73612;50.948;6.956;2024-01-15T11:18:23;2.00;99.90
83650;DHT22;73612;50.948;6.956;2024-01-15T11:21:19;2.00;99.90
83650;DHT22;73612;50.948;6.956;2024-01-15T11:23:42;2.10;99.90
83650;DHT22;73612;50.948;6.956;2024-01-15T11:28:47;2.30;99.90
83650;DHT22;73612;50.948;6.956;2024-01-15T11:31:14;2.40;99.90
83650;DHT22;73612;50.948;6.956;2024-01-15T11:33:47;2.40;99.90
83650;DHT22;73612;50.948;6.956;2024-01-15T11:36:07;2.50;99.90
83650;DHT22;73612;50.948;6.956;2024-01-15T11:38:34;2.50;99.90
83650;DHT22;73612;50.948;6.956;2024-01-15T11:41:01;2.60;99.90
83650;DHT22;73612;50.948;6.956;2024-01-15T11:43:28;2.60;99.90
83650;DHT22;73612;50.948;6.956;2024-01-15T11:45:54;2.60;99.90
83650;DHT22;73612;50.948;6.956;2024-01-15T11:48:21;2.60;99.90
83650;DHT22;73612;50.948;6.956;2024-01-15T11:50:48;2.60;99.90
83650;DHT22;73612;50.948;6.956;2024-01-15T11:53:17;2.60;99.90
83650;DHT22;73612;50.948;6.956;2024-01-15T11:55:44;2.60;99.90
83650;DHT22;73612;50.948;6.956;2024-01-15T11:58:10;2.60;99.90
83650;DHT22;73612;50.948;6.956;2024-01-15T12:00:40;2.60;99.90
83650;DHT22;73612;50.948;6.956;2024-01-15T12:03:06;2.60;99.90
83650;DHT22;73612;50.948;6.956;2024-01-15T12:05:33;2.60;99.90
83650;DHT22;73612;50.948;6.956;2024-01-15T12:08:00;2.60;99.90
83650;DHT22;73612;50.948;6.956;2024-01-15T12:10:26;2.60;99.90
83650;DHT22;73612;50.948;6.956;2024-01-15T12:13:04;2.50;99.90
83650;DHT22;73612;50.948;6.956;2024-01-15T12:15:30;2.50;99.90
83650;DHT22;73612;50.948;6.956;2024-01-15T12:17:57;2.50;99.90
83650;DHT22;73612;50.948;6.956;2024-01-15T12:20:24;2.50;99.90
83650;DHT22;73612;50.948;6.956;2024-01-15T12:22:50;2.70;99.90
83650;DHT22;73612;50.948;6.956;2024-01-15T12:25:17;2.90;99.90
83650;DHT22;73612;50.948;6.956;2024-01-15T12:27:44;3.20;99.90
83650;DHT22;73612;50.948;6.956;2024-01-15T12:30:11;3.60;99.90
83650;DHT22;73612;50.948;6.956;2024-01-15T12:32:40;3.90;99.30
83650;DHT22;73612;50.948;6.956;2024-01-15T12:35:06;4.00;98.60
83650;DHT22;73612;50.948;6.956;2024-01-15T12:37:35;3.90;97.50
83650;DHT22;73612;50.948;6.956;2024-01-15T12:39:59;3.60;96.70
83650;DHT22;73612;50.948;6.956;2024-01-15T12:42:27;3.40;97.30
83650;DHT22;73612;50.948;6.956;2024-01-15T12:44:54;3.30;97.80
83650;DHT22;73612;50.948;6.956;2024-01-15T12:47:19;3.20;97.60
83650;DHT22;73612;50.948;6.956;2024-01-15T12:52:46;3.00;97.80
83650;DHT22;73612;50.948;6.956;2024-01-15T13:00:44;3.00;98.20
83650;DHT22;73612;50.948;6.956;2024-01-15T13:05:57;3.20;97.40
83650;DHT22;73612;50.948;6.956;2024-01-15T13:08:24;3.20;97.30
83650;DHT22;73612;50.948;6.956;2024-01-15T13:10:50;3.30;97.20
83650;DHT22;73612;50.948;6.956;2024-01-15T13:13:17;3.30;97.10
83650;DHT22;73612;50.948;6.956;2024-01-15T13:15:44;3.20;96.80
83650;DHT22;73612;50.948;6.956;2024-01-15T13:18:10;3.10;97.00
83650;DHT22;73612;50.948;6.956;2024-01-15T13:20:37;3.10;97.50
83650;DHT22;73612;50.948;6.956;2024-01-15T13:23:03;3.10;96.80
83650;DHT22;73612;50.948;6.956;2024-01-15T13:25:30;3.00;97.00
83650;DHT22;73612;50.948;6.956;2024-01-15T13:27:57;3.00;96.90
83650;DHT22;73612;50.948;6.956;2024-01-15T13:30:23;3.00;97.00
83650;DHT22;73612;50.948;6.956;2024-01-15T13:32:50;3.00;96.80
83650;DHT22;73612;50.948;6.956;2024-01-15T13:35:16;3.00;96.90
83650;DHT22;73612;50.948;6.956;2024-01-15T13:37:43;3.00;97.30
83650;DHT22;73612;50.948;6.956;2024-01-15T13:40:10;3.00;97.30
83650;DHT22;73612;50.948;6.956;2024-01-15T13:42:36;3.00;97.60
83650;DHT22;73612;50.948;6.956;2024-01-15T13:45:04;3.00;97.90
83650;DHT22;73612;50.948;6.956;2024-01-15T13:47:31;3.00;98.20
83650;DHT22;73612;50.948;6.956;2024-01-15T13:49:57;3.10;98.00
83650;DHT22;73612;50.948;6.956;2024-01-15T13:52:24;3.00;97.90
83650;DHT22;73612;50.948;6.956;2024-01-15T13:54:51;3.00;97.90
83650;DHT22;73612;50.948;6.956;2024-01-15T13:57:17;2.90;97.80
83650;DHT22;73612;50.948;6.956;2024-01-15T13:59:44;3.00;97.80
83650;DHT22;73612;50.948;6.956;2024-01-15T14:02:10;2.90;97.60
83650;DHT22;73612;50.948;6.956;2024-01-15T14:04:38;2.90;97.50
83650;DHT22;73612;50.948;6.956;2024-01-15T14:07:04;2.90;97.90
83650;DHT22;73612;50.948;6.956;2024-01-15T14:09:30;2.80;97.80
83650;DHT22;73612;50.948;6.956;2024-01-15T14:11:57;2.70;97.80
83650;DHT22;73612;50.948;6.956;2024-01-15T14:14:23;2.70;97.80
83650;DHT22;73612;50.948;6.956;2024-01-15T14:16:50;2.70;98.10
83650;DHT22;73612;50.948;6.956;2024-01-15T14:19:17;2.60;98.20
83650;DHT22;73612;50.948;6.956;2024-01-15T14:21:43;2.60;98.10
83650;DHT22;73612;50.948;6.956;2024-01-15T14:24:10;2.50;98.40
83650;DHT22;73612;50.948;6.956;2024-01-15T14:26:36;2.60;98.80
83650;DHT22;73612;50.948;6.956;2024-01-15T14:29:03;2.60;98.60
83650;DHT22;73612;50.948;6.956;2024-01-15T14:31:30;2.60;98.50
83650;DHT22;73612;50.948;6.956;2024-01-15T14:33:56;2.60;98.50
83650;DHT22;73612;50.948;6.956;2024-01-15T14:36:23;2.60;98.80
83650;DHT22;73612;50.948;6.956;2024-01-15T14:38:49;2.60;98.60
83650;DHT22;73612;50.948;6.956;2024-01-15T14:41:16;2.70;98.40
83650;DHT22;73612;50.948;6.956;2024-01-15T14:43:44;2.70;98.30
83650;DHT22;73612;50.948;6.956;2024-01-15T14:46:10;2.70;98.30
83650;DHT22;73612;50.948;6.956;2024-01-15T14:48:37;2.70;98.40
83650;DHT22;73612;50.948;6.956;2024-01-15T14:51:03;2.70;98.50
83650;DHT22;73612;50.948;6.956;2024-01-15T14:53:30;2.60;98.50
83650;DHT22;73612;50.948;6.956;2024-01-15T14:55:57;2.60;98.80
83650;DHT22;73612;50.948;6.956;2024-01-15T14:58:23;2.60;98.90
83650;DHT22;73612;50.948;6.956;2024-01-15T15:00:50;2.50;98.90
83650;DHT22;73612;50.948;6.956;2024-01-15T15:03:16;2.50;98.80
83650;DHT22;73612;50.948;6.956;2024-01-15T15:05:43;2.50;98.90
83650;DHT22;73612;50.948;6.956;2024-01-15T15:08:09;2.50;98.90
83650;DHT22;73612;50.948;6.956;2024-01-15T15:10:36;2.50;98.90
83650;DHT22;73612;50.948;6.956;2024-01-15T15:13:03;2.50;99.10
83650;DHT22;73612;50.948;6.956;2024-01-15T15:15:29;2.50;99.00
83650;DHT22;73612;50.948;6.956;2024-01-15T15:17:56;2.50;98.90
83650;DHT22;73612;50.948;6.956;2024-01-15T15:20:23;2.50;98.90
83650;DHT22;73612;50.948;6.956;2024-01-15T15:22:49;2.50;98.70
83650;DHT22;73612;50.948;6.956;2024-01-15T15:25:16;2.50;98.60
83650;DHT22;73612;50.948;6.956;2024-01-15T15:27:42;2.50;98.60
83650;DHT22;73612;50.948;6.956;2024-01-15T15:30:09;2.50;98.60
83650;DHT22;73612;50.948;6.956;2024-01-15T15:32:36;2.60;98.50
83650;DHT22;73612;50.948;6.956;2024-01-15T15:35:02;2.60;98.60
83650;DHT22;73612;50.948;6.956;2024-01-15T15:37:29;2.50;98.40
83650;DHT22;73612;50.948;6.956;2024-01-15T15:39:56;2.50;98.40
83650;DHT22;73612;50.948;6.956;2024-01-15T15:42:22;2.50;98.30
83650;DHT22;73612;50.948;6.956;2024-01-15T15:44:49;2.50;98.20
83650;DHT22;73612;50.948;6.956;2024-01-15T15:47:15;2.40;98.30
83650;DHT22;73612;50.948;6.956;2024-01-15T15:49:42;2.40;98.50
83650;DHT22;73612;50.948;6.956;2024-01-15T15:52:09;2.30;98.70
83650;DHT22;73612;50.948;6.956;2024-01-15T15:54:35;2.20;99.10